createdAt,value
2017-11-22T00:01:25.805Z,6.97
2017-11-22T00:03:53.450Z,4.97
2017-11-22T00:06:20.954Z,4.30
2017-11-22T00:08:48.437Z,4.10
2017-11-22T00:11:16.694Z,3.80
2017-11-22T00:13:44.393Z,4.27
2017-11-22T00:16:12.058Z,4.03
2017-11-22T00:18:40.335Z,3.87
2017-11-22T00:21:07.925Z,4.47
2017-11-22T00:23:35.395Z,4.43
2017-11-22T00:26:02.898Z,3.80
2017-11-22T00:28:30.388Z,4.03
2017-11-22T00:30:58.832Z,4.53
2017-11-22T00:33:27.135Z,3.70
2017-11-22T00:35:54.781Z,4.80
2017-11-22T00:38:22.318Z,4.20
2017-11-22T00:40:50.002Z,3.97
2017-11-22T00:43:17.774Z,4.73
2017-11-22T00:45:46.047Z,4.60
2017-11-22T00:48:14.290Z,4.30
2017-11-22T00:50:42.027Z,4.43
2017-11-22T00:53:09.513Z,5.00
2017-11-22T00:55:36.994Z,4.60
2017-11-22T00:58:05.265Z,4.87
2017-11-22T01:00:32.866Z,4.40
2017-11-22T01:03:00.363Z,5.20
2017-11-22T01:05:27.865Z,4.53
2017-11-22T01:07:55.366Z,5.03
2017-11-22T01:10:22.865Z,5.23
2017-11-22T01:12:50.371Z,5.60
2017-11-22T01:15:17.882Z,4.83
2017-11-22T01:17:46.146Z,5.17
2017-11-22T01:20:13.642Z,4.20
2017-11-22T01:22:41.194Z,4.87
2017-11-22T01:25:08.671Z,5.03
2017-11-22T01:27:36.165Z,4.50
2017-11-22T01:30:03.664Z,4.33
2017-11-22T01:32:32.046Z,4.57
2017-11-22T01:34:59.909Z,4.50
2017-11-22T01:37:27.568Z,6.30
2017-11-22T01:39:55.849Z,4.20
2017-11-22T01:42:24.224Z,5.80
2017-11-22T01:44:52.580Z,3.97
2017-11-22T01:47:20.091Z,4.27
2017-11-22T01:49:48.107Z,5.13
2017-11-22T01:52:16.384Z,4.60
2017-11-22T01:54:44.083Z,4.90
2017-11-22T01:57:11.597Z,4.30
2017-11-22T01:59:39.103Z,5.60
2017-11-22T02:02:07.401Z,5.20
2017-11-22T02:04:34.921Z,6.00
2017-11-22T02:07:02.437Z,5.07
2017-11-22T02:09:29.958Z,5.60
2017-11-22T02:11:57.505Z,5.53
2017-11-22T02:14:25.769Z,5.23
2017-11-22T02:16:53.340Z,5.00
2017-11-22T02:19:21.604Z,5.20
2017-11-22T02:21:49.074Z,5.70
2017-11-22T02:24:17.650Z,5.40
2017-11-22T02:26:46.387Z,5.87
2017-11-22T02:29:14.025Z,5.17
2017-11-22T02:31:41.534Z,5.87
2017-11-22T02:34:09.022Z,5.50
2017-11-22T02:36:36.759Z,5.90
2017-11-22T02:39:04.238Z,6.90
2017-11-22T02:41:31.929Z,6.27
2017-11-22T02:43:59.612Z,5.97
2017-11-22T02:46:27.106Z,7.10
2017-11-22T02:48:54.732Z,7.73
2017-11-22T02:51:22.350Z,6.77
2017-11-22T02:53:49.848Z,8.00
2017-11-22T02:56:17.416Z,7.57
2017-11-22T02:58:44.917Z,8.53
2017-11-22T03:01:12.449Z,7.03
2017-11-22T03:03:39.941Z,7.37
2017-11-22T03:06:08.213Z,10.80
2017-11-22T03:08:35.694Z,9.27
2017-11-22T03:11:03.188Z,9.90
2017-11-22T03:13:30.694Z,9.30
2017-11-22T03:15:58.940Z,8.50
2017-11-22T03:18:26.468Z,7.10
2017-11-22T03:20:53.949Z,7.20
2017-11-22T03:23:21.499Z,5.33
2017-11-22T03:25:49.098Z,5.40
2017-11-22T03:28:16.680Z,6.03
2017-11-22T03:30:44.582Z,5.70
2017-11-22T03:33:12.205Z,5.73
2017-11-22T03:35:39.704Z,6.73
2017-11-22T03:38:07.197Z,6.57
2017-11-22T03:40:34.677Z,6.60
2017-11-22T03:43:02.364Z,7.00
2017-11-22T03:45:29.867Z,7.00
2017-11-22T03:47:57.355Z,7.00
2017-11-22T03:50:30.651Z,6.70
2017-11-22T03:53:03.948Z,6.70
2017-11-22T03:55:31.615Z,8.77
2017-11-22T03:57:59.287Z,7.17
2017-11-22T04:00:29.566Z,8.33
2017-11-22T04:03:02.644Z,8.87
2017-11-22T04:05:32.906Z,9.00
2017-11-22T04:08:01.216Z,8.50
2017-11-22T04:10:28.720Z,8.77
2017-11-22T04:12:56.338Z,9.87
2017-11-22T04:15:23.880Z,9.10
2017-11-22T04:17:55.290Z,10.73
2017-11-22T04:20:28.549Z,9.83
2017-11-22T04:22:56.028Z,9.70
2017-11-22T04:25:23.525Z,9.37
2017-11-22T04:27:51.769Z,9.67
2017-11-22T04:30:19.337Z,9.47
2017-11-22T04:32:46.918Z,9.87
2017-11-22T04:35:14.511Z,11.27
2017-11-22T04:37:42.146Z,10.60
2017-11-22T04:40:11.141Z,10.40
2017-11-22T04:42:38.670Z,11.37
2017-11-22T04:45:06.190Z,11.37
2017-11-22T04:47:33.701Z,11.27
2017-11-22T04:50:01.298Z,10.63
2017-11-22T04:52:29.553Z,11.10
2017-11-22T04:54:57.046Z,10.63
2017-11-22T04:57:24.548Z,11.80
2017-11-22T04:59:53.304Z,10.70
2017-11-22T05:02:21.665Z,10.00
2017-11-22T05:04:49.157Z,10.43
2017-11-22T05:07:16.653Z,12.40
2017-11-22T05:09:45.062Z,10.43
2017-11-22T05:12:12.564Z,9.63
2017-11-22T05:14:40.091Z,10.90
2017-11-22T05:17:09.382Z,10.00
2017-11-22T05:19:36.879Z,10.60
2017-11-22T05:22:04.437Z,9.50
2017-11-22T05:24:31.910Z,9.57
2017-11-22T05:26:59.434Z,9.60
2017-11-22T05:29:26.954Z,9.70
2017-11-22T05:31:54.552Z,11.07
2017-11-22T05:34:22.061Z,9.27
2017-11-22T05:36:49.578Z,11.10
2017-11-22T05:39:17.085Z,11.20
2017-11-22T05:41:45.361Z,9.77
2017-11-22T05:44:12.862Z,10.40
2017-11-22T05:46:40.379Z,11.40
2017-11-22T05:49:07.966Z,10.47
2017-11-22T05:51:35.514Z,10.30
2017-11-22T05:54:03.169Z,9.23
2017-11-22T05:56:31.492Z,9.90
2017-11-22T05:58:59.105Z,9.60
2017-11-22T06:01:27.868Z,9.90
2017-11-22T06:03:55.370Z,9.83
2017-11-22T06:06:22.861Z,9.47
2017-11-22T06:08:50.342Z,9.10
2017-11-22T06:11:18.237Z,8.20
2017-11-22T06:13:46.500Z,9.87
2017-11-22T06:16:14.760Z,9.40
2017-11-22T06:18:42.377Z,9.47
2017-11-22T06:21:09.858Z,11.43
2017-11-22T06:23:37.388Z,10.60
2017-11-22T06:26:06.740Z,8.93
2017-11-22T06:28:34.246Z,8.70
2017-11-22T06:31:01.836Z,10.00
2017-11-22T06:33:29.338Z,9.97
2017-11-22T06:35:56.836Z,9.23
2017-11-22T06:38:24.392Z,8.57
2017-11-22T06:40:51.911Z,9.90
2017-11-22T06:43:21.366Z,9.67
2017-11-22T06:45:48.985Z,10.00
2017-11-22T06:48:16.494Z,10.70
2017-11-22T06:50:43.997Z,10.13
2017-11-22T06:53:11.709Z,10.30
2017-11-22T06:55:39.195Z,9.60
2017-11-22T06:58:06.703Z,8.70
2017-11-22T07:00:35.111Z,10.23
2017-11-22T07:03:02.674Z,10.13
2017-11-22T07:05:30.149Z,10.73
2017-11-22T07:07:57.856Z,10.27
2017-11-22T07:10:25.402Z,10.93
2017-11-22T07:12:53.074Z,9.40
2017-11-22T07:15:21.338Z,10.97
2017-11-22T07:17:49.836Z,9.80
2017-11-22T07:20:17.358Z,9.27
2017-11-22T07:22:44.971Z,9.40
2017-11-22T07:25:12.486Z,10.27
2017-11-22T07:27:39.974Z,10.87
2017-11-22T07:30:07.458Z,9.73
2017-11-22T07:32:35.101Z,9.80
2017-11-22T07:35:02.619Z,9.70
2017-11-22T07:37:35.697Z,10.23
2017-11-22T07:40:03.442Z,10.93
2017-11-22T07:42:31.084Z,10.70
2017-11-22T07:44:58.632Z,9.73
2017-11-22T07:47:26.209Z,9.23
2017-11-22T07:49:54.029Z,8.70
2017-11-22T07:52:22.548Z,10.00
2017-11-22T07:54:51.362Z,9.20
2017-11-22T07:57:24.649Z,9.17
2017-11-22T07:59:52.218Z,8.80
2017-11-22T08:02:19.729Z,9.87
2017-11-22T08:04:47.412Z,8.73
2017-11-22T08:07:14.926Z,8.67
2017-11-22T08:09:42.609Z,9.90
2017-11-22T08:12:10.217Z,9.10
2017-11-22T08:14:37.809Z,9.50
2017-11-22T08:17:05.376Z,8.87
2017-11-22T08:19:33.824Z,10.03
2017-11-22T08:22:01.309Z,8.00
2017-11-22T08:24:29.957Z,8.30
2017-11-22T08:26:57.627Z,8.90
2017-11-22T08:29:25.114Z,7.40
2017-11-22T08:31:52.608Z,8.03
2017-11-22T08:34:20.100Z,8.27
2017-11-22T08:36:47.585Z,8.00
2017-11-22T08:39:15.329Z,6.90
2017-11-22T08:41:42.811Z,8.07
2017-11-22T08:44:10.413Z,8.53
2017-11-22T08:46:37.896Z,7.13
2017-11-22T08:49:05.389Z,7.70
2017-11-22T08:51:32.885Z,10.27
2017-11-22T08:54:06.072Z,8.03
2017-11-22T08:56:34.568Z,8.90
2017-11-22T08:59:02.830Z,8.93
2017-11-22T09:01:30.432Z,7.97
2017-11-22T09:03:57.921Z,9.23
2017-11-22T09:06:30.221Z,8.63
2017-11-22T09:08:57.758Z,8.90
2017-11-22T09:11:25.278Z,8.17
2017-11-22T09:13:52.765Z,8.03
2017-11-22T09:16:20.876Z,7.90
2017-11-22T09:18:56.152Z,8.20
2017-11-22T09:21:23.648Z,8.00
2017-11-22T09:24:05.843Z,7.87
2017-11-22T09:26:33.347Z,7.33
2017-11-22T09:29:01.626Z,7.80
2017-11-22T09:31:34.831Z,7.90
2017-11-22T09:34:08.047Z,8.10
2017-11-22T09:36:35.574Z,9.00
2017-11-22T09:39:03.079Z,7.93
2017-11-22T09:41:30.679Z,8.00
2017-11-22T09:43:58.168Z,7.17
2017-11-22T09:46:25.658Z,8.00
2017-11-22T09:48:53.161Z,7.87
2017-11-22T09:51:21.434Z,6.60
2017-11-22T09:53:49.703Z,7.40
2017-11-22T09:56:17.978Z,6.93
2017-11-22T09:58:45.538Z,6.60
2017-11-22T10:01:13.791Z,7.17
2017-11-22T10:03:41.294Z,6.73
2017-11-22T10:06:08.778Z,7.47
2017-11-22T10:08:36.293Z,6.77
2017-11-22T10:11:04.574Z,7.80
2017-11-22T10:13:32.947Z,8.50
2017-11-22T10:16:00.437Z,13.47
2017-11-22T10:18:27.925Z,9.93
2017-11-22T10:20:55.414Z,8.70
2017-11-22T10:23:27.512Z,6.87
2017-11-22T10:25:54.997Z,7.00
2017-11-22T10:28:22.516Z,7.60
2017-11-22T10:30:50.750Z,8.20
2017-11-22T10:33:18.265Z,6.70
2017-11-22T10:35:45.755Z,7.10
2017-11-22T10:38:13.247Z,7.33
2017-11-22T10:40:40.790Z,7.27
2017-11-22T10:43:08.278Z,7.00
2017-11-22T10:45:36.536Z,7.67
2017-11-22T10:48:04.041Z,7.20
2017-11-22T10:50:31.530Z,5.83
2017-11-22T10:52:59.012Z,6.57
2017-11-22T10:55:26.702Z,6.47
2017-11-22T10:57:54.189Z,6.73
2017-11-22T11:00:21.717Z,7.03
2017-11-22T11:02:49.210Z,6.90
2017-11-22T11:05:16.720Z,7.00
2017-11-22T11:07:44.195Z,7.10
2017-11-22T11:10:13.363Z,6.17
2017-11-22T11:12:40.832Z,7.07
2017-11-22T11:15:08.328Z,5.77
2017-11-22T11:17:35.813Z,6.30
2017-11-22T11:20:03.336Z,5.73
2017-11-22T11:22:30.907Z,6.53
2017-11-22T11:24:58.410Z,6.87
2017-11-22T11:27:25.892Z,6.77
2017-11-22T11:29:54.196Z,9.33
2017-11-22T11:32:21.693Z,5.70
2017-11-22T11:34:49.175Z,6.63
2017-11-22T11:37:16.777Z,7.30
2017-11-22T11:39:44.260Z,6.77
2017-11-22T11:42:11.894Z,6.53
2017-11-22T11:44:39.395Z,7.50
2017-11-22T11:47:06.899Z,5.80
2017-11-22T11:49:34.382Z,7.63
2017-11-22T11:52:01.884Z,10.63
2017-11-22T11:54:29.472Z,5.93
2017-11-22T11:56:57.133Z,6.90
2017-11-22T11:59:24.626Z,6.10
2017-11-22T12:01:52.253Z,6.23
2017-11-22T12:04:19.740Z,6.43
2017-11-22T12:06:47.254Z,6.13
2017-11-22T12:09:14.761Z,6.17
2017-11-22T12:11:42.243Z,7.80
2017-11-22T12:14:09.746Z,6.50
2017-11-22T12:16:38.209Z,6.30
2017-11-22T12:19:06.636Z,6.37
2017-11-22T12:21:40.058Z,5.77
2017-11-22T12:24:07.567Z,5.60
2017-11-22T12:26:35.846Z,5.60
2017-11-22T12:29:03.349Z,6.23
2017-11-22T12:31:31.000Z,5.30
2017-11-22T12:33:58.479Z,5.80
2017-11-22T12:36:25.982Z,6.33
2017-11-22T12:38:54.392Z,5.80
2017-11-22T12:41:21.875Z,5.40
2017-11-22T12:43:49.371Z,5.60
2017-11-22T12:46:16.859Z,5.97
2017-11-22T12:48:44.509Z,6.20
2017-11-22T12:51:12.007Z,5.57
2017-11-22T12:53:39.510Z,5.70
2017-11-22T12:56:07.030Z,6.10
2017-11-22T12:58:34.522Z,5.73
2017-11-22T13:01:02.200Z,6.03
2017-11-22T13:03:29.874Z,5.30
2017-11-22T13:05:57.382Z,6.20
2017-11-22T13:08:25.069Z,7.00
2017-11-22T13:10:59.098Z,6.00
2017-11-22T13:13:27.357Z,6.00
2017-11-22T13:15:54.863Z,5.90
2017-11-22T13:18:22.349Z,5.77
2017-11-22T13:20:49.862Z,6.20
2017-11-22T13:23:17.464Z,6.00
2017-11-22T13:25:44.971Z,5.50
2017-11-22T13:28:12.858Z,6.20
2017-11-22T13:30:40.366Z,5.33
2017-11-22T13:33:07.875Z,5.07
2017-11-22T13:35:35.375Z,5.53
2017-11-22T13:38:02.865Z,6.67
2017-11-22T13:40:31.121Z,6.63
2017-11-22T13:42:58.619Z,8.03
2017-11-22T13:45:26.115Z,6.83
2017-11-22T13:47:53.645Z,6.37
2017-11-22T13:50:21.138Z,7.20
2017-11-22T13:52:48.745Z,7.43
2017-11-22T13:55:16.250Z,7.67
2017-11-22T13:57:43.867Z,7.00
2017-11-22T14:00:11.353Z,7.77
2017-11-22T14:02:38.965Z,7.27
2017-11-22T14:05:06.446Z,8.50
2017-11-22T14:07:33.929Z,7.40
2017-11-22T14:10:01.583Z,7.10
2017-11-22T14:12:29.308Z,6.20
2017-11-22T14:14:56.794Z,6.47
2017-11-22T14:17:24.292Z,7.13
2017-11-22T14:19:51.803Z,6.77
2017-11-22T14:22:19.487Z,6.80
2017-11-22T14:24:47.008Z,9.53
2017-11-22T14:27:14.558Z,6.90
2017-11-22T14:29:43.550Z,7.87
2017-11-22T14:32:11.837Z,7.83
2017-11-22T14:34:40.111Z,7.80
2017-11-22T14:37:07.600Z,7.10
2017-11-22T14:39:35.311Z,6.97
2017-11-22T14:42:02.807Z,7.10
2017-11-22T14:44:31.218Z,6.53
2017-11-22T14:46:58.836Z,7.33
2017-11-22T14:49:26.313Z,8.30
2017-11-22T14:51:53.825Z,7.70
2017-11-22T14:54:21.335Z,6.70
2017-11-22T14:56:49.006Z,6.73
2017-11-22T14:59:16.538Z,6.63
2017-11-22T15:01:44.844Z,6.57
2017-11-22T15:04:12.354Z,6.23
2017-11-22T15:06:39.863Z,6.23
2017-11-22T15:09:08.336Z,7.00
2017-11-22T15:11:35.830Z,6.50
2017-11-22T15:14:03.314Z,6.53
2017-11-22T15:16:30.866Z,7.03
2017-11-22T15:18:58.362Z,6.07
2017-11-22T15:21:25.858Z,7.60
2017-11-22T15:23:53.361Z,6.40
2017-11-22T15:26:21.617Z,7.10
2017-11-22T15:28:49.110Z,7.87
2017-11-22T15:31:16.758Z,7.30
2017-11-22T15:33:44.244Z,7.13
2017-11-22T15:36:11.748Z,7.10
2017-11-22T15:38:39.442Z,6.70
2017-11-22T15:41:08.084Z,6.80
2017-11-22T15:43:35.694Z,6.33
2017-11-22T15:46:03.369Z,5.70
2017-11-22T15:48:31.055Z,6.70
2017-11-22T15:50:58.554Z,6.37
2017-11-22T15:53:26.238Z,5.70
2017-11-22T15:55:54.495Z,7.10
2017-11-22T15:58:21.993Z,6.97
2017-11-22T16:00:49.467Z,7.70
2017-11-22T16:03:17.450Z,8.43
2017-11-22T16:05:44.922Z,7.40
2017-11-22T16:08:12.411Z,8.03
2017-11-22T16:10:40.695Z,8.33
2017-11-22T16:13:08.944Z,8.23
2017-11-22T16:15:36.436Z,10.03
2017-11-22T16:18:04.824Z,9.27
2017-11-22T16:20:32.309Z,9.33
2017-11-22T16:22:59.795Z,8.67
2017-11-22T16:25:27.281Z,7.77
2017-11-22T16:27:55.550Z,8.90
2017-11-22T16:30:23.127Z,8.53
2017-11-22T16:32:50.614Z,9.13
2017-11-22T16:35:18.334Z,10.67
2017-11-22T16:37:46.610Z,12.37
2017-11-22T16:40:14.872Z,10.70
2017-11-22T16:42:42.373Z,9.80
2017-11-22T16:45:10.659Z,10.63
2017-11-22T16:47:38.138Z,11.57
2017-11-22T16:50:05.647Z,11.50
2017-11-22T16:52:33.173Z,11.30
2017-11-22T16:55:00.658Z,11.63
2017-11-22T16:57:28.330Z,10.37
2017-11-22T16:59:55.810Z,10.20
2017-11-22T17:02:23.303Z,9.50
2017-11-22T17:04:50.830Z,10.13
2017-11-22T17:07:18.382Z,8.50
2017-11-22T17:09:46.758Z,10.07
2017-11-22T17:12:14.408Z,8.90
2017-11-22T17:14:41.894Z,8.20
2017-11-22T17:17:09.380Z,9.87
2017-11-22T17:19:36.874Z,9.80
2017-11-22T17:22:04.562Z,8.97
2017-11-22T17:24:32.063Z,9.70
2017-11-22T17:26:59.540Z,9.23
2017-11-22T17:29:27.129Z,8.60
2017-11-22T17:31:54.593Z,9.03
2017-11-22T17:34:22.094Z,8.20
2017-11-22T17:36:49.594Z,9.67
2017-11-22T17:39:17.079Z,8.73
2017-11-22T17:41:44.571Z,8.70
2017-11-22T17:44:12.060Z,8.27
2017-11-22T17:46:39.556Z,8.80
2017-11-22T17:49:07.093Z,8.20
2017-11-22T17:51:34.756Z,7.77
2017-11-22T17:54:02.257Z,8.23
2017-11-22T17:56:29.737Z,10.10
2017-11-22T17:58:57.254Z,9.17
2017-11-22T18:01:24.794Z,10.03
2017-11-22T18:03:52.289Z,8.00
2017-11-22T18:06:19.865Z,8.67
2017-11-22T18:08:47.361Z,7.87
2017-11-22T18:11:15.025Z,8.90
2017-11-22T18:13:42.528Z,10.73
2017-11-22T18:16:10.013Z,9.03
2017-11-22T18:18:37.599Z,10.30
2017-11-22T18:21:05.102Z,10.23
2017-11-22T18:23:32.590Z,10.83
2017-11-22T18:26:00.111Z,10.00
2017-11-22T18:28:27.679Z,9.87
2017-11-22T18:30:55.294Z,10.27
2017-11-22T18:33:23.619Z,9.00
2017-11-22T18:35:51.134Z,8.47
2017-11-22T18:38:18.655Z,9.90
2017-11-22T18:40:46.154Z,11.63
2017-11-22T18:43:14.422Z,11.47
2017-11-22T18:45:42.700Z,14.93
2017-11-22T18:48:10.176Z,16.17
2017-11-22T18:50:38.540Z,16.40
2017-11-22T18:53:06.778Z,16.57
2017-11-22T18:55:34.547Z,13.77
2017-11-22T18:58:02.090Z,14.60
2017-11-22T19:00:29.750Z,12.60
2017-11-22T19:02:57.269Z,12.93
2017-11-22T19:05:25.546Z,11.63
2017-11-22T19:07:53.819Z,11.30
2017-11-22T19:10:21.320Z,11.30
2017-11-22T19:12:48.919Z,11.53
2017-11-22T19:15:16.405Z,11.63
2017-11-22T19:17:43.904Z,10.83
2017-11-22T19:20:11.406Z,13.20
2017-11-22T19:22:39.689Z,12.70
2017-11-22T19:25:07.170Z,12.17
2017-11-22T19:27:34.700Z,13.50
2017-11-22T19:30:02.316Z,13.03
2017-11-22T19:32:29.831Z,13.20
2017-11-22T19:34:57.532Z,12.63
2017-11-22T19:37:25.176Z,12.10
2017-11-22T19:39:52.662Z,10.43
2017-11-22T19:42:20.306Z,11.47
2017-11-22T19:44:47.778Z,11.00
2017-11-22T19:47:15.268Z,11.77
2017-11-22T19:49:43.541Z,11.00
2017-11-22T19:52:11.167Z,12.10
2017-11-22T19:54:39.019Z,12.10
2017-11-22T19:57:06.594Z,11.20
2017-11-22T19:59:34.225Z,11.87
2017-11-22T20:02:02.512Z,11.47
2017-11-22T20:04:30.025Z,10.77
2017-11-22T20:07:09.254Z,14.23
2017-11-22T20:09:36.972Z,12.27
2017-11-22T20:12:04.471Z,12.80
2017-11-22T20:14:32.081Z,12.70
2017-11-22T20:16:59.592Z,10.53
2017-11-22T20:19:27.125Z,12.70
2017-11-22T20:21:55.602Z,11.60
2017-11-22T20:24:23.105Z,12.10
2017-11-22T20:26:50.585Z,13.57
2017-11-22T20:29:18.100Z,12.00
2017-11-22T20:31:45.586Z,12.10
2017-11-22T20:34:13.227Z,12.50
2017-11-22T20:36:40.763Z,12.27
2017-11-22T20:39:08.264Z,14.37
2017-11-22T20:41:35.826Z,13.07
2017-11-22T20:44:03.403Z,12.57
2017-11-22T20:46:30.979Z,12.67
2017-11-22T20:48:58.481Z,13.30
2017-11-22T20:51:26.086Z,11.47
2017-11-22T20:53:54.484Z,12.67
2017-11-22T20:56:22.293Z,11.80
2017-11-22T20:58:49.893Z,10.57
2017-11-22T21:01:18.163Z,11.23
2017-11-22T21:03:45.658Z,13.40
2017-11-22T21:06:13.170Z,10.83
2017-11-22T21:08:40.764Z,10.27
2017-11-22T21:11:08.435Z,11.17
2017-11-22T21:13:35.943Z,10.47
2017-11-22T21:16:03.447Z,11.33
2017-11-22T21:18:31.724Z,11.10
2017-11-22T21:20:59.222Z,11.30
2017-11-22T21:23:26.710Z,10.10
2017-11-22T21:25:54.267Z,12.27
2017-11-22T21:28:21.861Z,11.30
2017-11-22T21:30:49.415Z,12.13
2017-11-22T21:33:16.938Z,11.57
2017-11-22T21:35:44.430Z,12.03
2017-11-22T21:38:12.688Z,13.03
2017-11-22T21:40:40.188Z,12.20
2017-11-22T21:43:07.696Z,13.07
2017-11-22T21:45:35.371Z,13.37
2017-11-22T21:48:02.870Z,12.30
2017-11-22T21:50:30.388Z,12.80
2017-11-22T21:52:57.889Z,11.83
2017-11-22T21:55:25.384Z,13.80
2017-11-22T21:57:52.915Z,12.90
2017-11-22T22:00:20.401Z,13.93
2017-11-22T22:02:48.127Z,11.50
2017-11-22T22:05:15.646Z,12.87
2017-11-22T22:07:43.917Z,12.30
2017-11-22T22:10:11.504Z,10.93
2017-11-22T22:12:39.753Z,10.90
2017-11-22T22:15:07.346Z,11.87
2017-11-22T22:17:34.831Z,11.50
2017-11-22T22:20:02.328Z,11.73
2017-11-22T22:22:29.870Z,13.27
2017-11-22T22:24:57.391Z,10.57
2017-11-22T22:27:24.885Z,11.50
2017-11-22T22:29:52.389Z,10.27
2017-11-22T22:32:20.656Z,9.50
2017-11-22T22:34:48.918Z,10.90
2017-11-22T22:37:17.214Z,9.90
2017-11-22T22:39:45.463Z,11.20
2017-11-22T22:42:12.989Z,10.13
2017-11-22T22:44:40.538Z,10.33
2017-11-22T22:47:08.166Z,9.67
2017-11-22T22:49:35.863Z,11.70
2017-11-22T22:52:03.372Z,11.20
2017-11-22T22:54:30.869Z,9.83
2017-11-22T22:56:58.815Z,10.50
2017-11-22T22:59:26.344Z,10.50
2017-11-22T23:01:53.863Z,10.17
2017-11-22T23:04:21.507Z,10.30
2017-11-22T23:06:49.007Z,10.67
2017-11-22T23:09:16.612Z,11.03
2017-11-22T23:11:44.875Z,10.67
2017-11-22T23:14:12.505Z,10.77
2017-11-22T23:16:40.010Z,11.10
2017-11-22T23:19:07.510Z,10.90
2017-11-22T23:21:35.033Z,9.57
2017-11-22T23:24:03.414Z,10.43
2017-11-22T23:26:30.975Z,10.90
2017-11-22T23:28:59.241Z,10.23
2017-11-22T23:31:26.745Z,10.47
2017-11-22T23:33:54.244Z,11.00
2017-11-22T23:36:22.706Z,10.00
2017-11-22T23:38:50.203Z,9.40
2017-11-22T23:41:17.737Z,10.03
2017-11-22T23:43:45.235Z,10.30
2017-11-22T23:46:12.747Z,10.00
2017-11-22T23:48:40.360Z,8.83
2017-11-22T23:51:08.268Z,10.13
2017-11-22T23:53:35.755Z,10.67
2017-11-22T23:56:04.166Z,10.03
2017-11-22T23:58:31.822Z,9.10
